sensor_id;sensor_type;location;lat;lon;timestamp;P1;durP1;ratioP1;P2;durP2;ratioP2
31990;SDS011;18508;49.386;8.370;2022-08-07T00:00:23;2.92;;;0.98;;
31990;SDS011;18508;49.386;8.370;2022-08-07T00:02:53;2.33;;;0.95;;
31990;SDS011;18508;49.386;8.370;2022-08-07T00:05:22;4.28;;;1.20;;
31990;SDS011;18508;49.386;8.370;2022-08-07T00:07:53;5.90;;;1.10;;
31990;SDS011;18508;49.386;8.370;2022-08-07T00:10:25;6.50;;;1.20;;
31990;SDS011;18508;49.386;8.370;2022-08-07T00:12:57;4.30;;;1.10;;
31990;SDS011;18508;49.386;8.370;2022-08-07T00:15:46;4.07;;;1.48;;
31990;SDS011;18508;49.386;8.370;2022-08-07T00:18:17;3.15;;;1.40;;
31990;SDS011;18508;49.386;8.370;2022-08-07T00:20:50;2.95;;;1.77;;
31990;SDS011;18508;49.386;8.370;2022-08-07T00:23:23;5.38;;;2.00;;
31990;SDS011;18508;49.386;8.370;2022-08-07T00:25:55;6.78;;;2.28;;
31990;SDS011;18508;49.386;8.370;2022-08-07T00:28:32;5.78;;;2.10;;
31990;SDS011;18508;49.386;8.370;2022-08-07T00:31:11;5.13;;;2.30;;
31990;SDS011;18508;49.386;8.370;2022-08-07T00:33:43;4.50;;;2.20;;
31990;SDS011;18508;49.386;8.370;2022-08-07T00:36:13;4.75;;;2.40;;
31990;SDS011;18508;49.386;8.370;2022-08-07T00:38:43;4.95;;;2.55;;
31990;SDS011;18508;49.386;8.370;2022-08-07T00:41:11;10.00;;;2.72;;
31990;SDS011;18508;49.386;8.370;2022-08-07T00:43:40;5.85;;;2.63;;
31990;SDS011;18508;49.386;8.370;2022-08-07T00:46:27;6.43;;;3.30;;
31990;SDS011;18508;49.386;8.370;2022-08-07T00:48:58;5.78;;;3.15;;
31990;SDS011;18508;49.386;8.370;2022-08-07T00:51:28;6.80;;;2.85;;
31990;SDS011;18508;49.386;8.370;2022-08-07T00:54:18;6.20;;;2.65;;
31990;SDS011;18508;49.386;8.370;2022-08-07T00:56:48;4.88;;;2.78;;
31990;SDS011;18508;49.386;8.370;2022-08-07T00:59:18;5.60;;;3.00;;
31990;SDS011;18508;49.386;8.370;2022-08-07T01:02:01;5.68;;;2.63;;
31990;SDS011;18508;49.386;8.370;2022-08-07T01:04:34;5.35;;;2.50;;
31990;SDS011;18508;49.386;8.370;2022-08-07T01:07:08;5.95;;;2.67;;
31990;SDS011;18508;49.386;8.370;2022-08-07T01:09:39;6.07;;;2.40;;
31990;SDS011;18508;49.386;8.370;2022-08-07T01:12:27;6.55;;;2.40;;
31990;SDS011;18508;49.386;8.370;2022-08-07T01:14:56;4.15;;;2.42;;
31990;SDS011;18508;49.386;8.370;2022-08-07T01:17:29;5.18;;;2.60;;
31990;SDS011;18508;49.386;8.370;2022-08-07T01:20:00;6.00;;;2.40;;
31990;SDS011;18508;49.386;8.370;2022-08-07T01:22:34;5.25;;;2.90;;
31990;SDS011;18508;49.386;8.370;2022-08-07T01:25:19;6.32;;;3.10;;
31990;SDS011;18508;49.386;8.370;2022-08-07T01:28:07;6.47;;;3.15;;
31990;SDS011;18508;49.386;8.370;2022-08-07T01:30:36;8.10;;;3.03;;
31990;SDS011;18508;49.386;8.370;2022-08-07T01:33:07;10.77;;;3.15;;
31990;SDS011;18508;49.386;8.370;2022-08-07T01:35:35;11.05;;;3.50;;
31990;SDS011;18508;49.386;8.370;2022-08-07T01:38:21;6.85;;;2.78;;
31990;SDS011;18508;49.386;8.370;2022-08-07T01:40:52;7.28;;;3.40;;
31990;SDS011;18508;49.386;8.370;2022-08-07T01:43:22;6.38;;;2.83;;
31990;SDS011;18508;49.386;8.370;2022-08-07T01:45:51;9.50;;;3.47;;
31990;SDS011;18508;49.386;8.370;2022-08-07T01:48:20;8.18;;;3.03;;
31990;SDS011;18508;49.386;8.370;2022-08-07T01:50:59;7.40;;;2.83;;
31990;SDS011;18508;49.386;8.370;2022-08-07T01:53:51;7.30;;;3.10;;
31990;SDS011;18508;49.386;8.370;2022-08-07T01:56:40;8.98;;;3.08;;
31990;SDS011;18508;49.386;8.370;2022-08-07T01:59:17;5.68;;;2.40;;
31990;SDS011;18508;49.386;8.370;2022-08-07T02:01:57;10.07;;;2.78;;
31990;SDS011;18508;49.386;8.370;2022-08-07T02:04:36;8.38;;;2.60;;
31990;SDS011;18508;49.386;8.370;2022-08-07T02:07:23;5.95;;;2.30;;
31990;SDS011;18508;49.386;8.370;2022-08-07T02:10:03;7.10;;;1.95;;
31990;SDS011;18508;49.386;8.370;2022-08-07T02:12:34;8.60;;;2.33;;
31990;SDS011;18508;49.386;8.370;2022-08-07T02:15:05;5.20;;;2.40;;
31990;SDS011;18508;49.386;8.370;2022-08-07T02:17:35;5.63;;;1.85;;
31990;SDS011;18508;49.386;8.370;2022-08-07T02:20:06;4.85;;;1.50;;
31990;SDS011;18508;49.386;8.370;2022-08-07T02:22:45;7.35;;;1.83;;
31990;SDS011;18508;49.386;8.370;2022-08-07T02:25:22;4.45;;;1.77;;
31990;SDS011;18508;49.386;8.370;2022-08-07T02:28:10;5.13;;;1.90;;
31990;SDS011;18508;49.386;8.370;2022-08-07T02:30:50;7.55;;;2.25;;
31990;SDS011;18508;49.386;8.370;2022-08-07T02:33:25;6.18;;;1.75;;
31990;SDS011;18508;49.386;8.370;2022-08-07T02:36:15;6.32;;;1.95;;
31990;SDS011;18508;49.386;8.370;2022-08-07T02:38:57;4.55;;;1.90;;
31990;SDS011;18508;49.386;8.370;2022-08-07T02:41:27;4.75;;;1.55;;
31990;SDS011;18508;49.386;8.370;2022-08-07T02:44:02;5.40;;;2.28;;
31990;SDS011;18508;49.386;8.370;2022-08-07T02:46:31;5.78;;;1.85;;
31990;SDS011;18508;49.386;8.370;2022-08-07T02:49:11;6.82;;;2.17;;
31990;SDS011;18508;49.386;8.370;2022-08-07T02:52:00;3.67;;;1.50;;
31990;SDS011;18508;49.386;8.370;2022-08-07T02:54:34;6.78;;;2.10;;
31990;SDS011;18508;49.386;8.370;2022-08-07T02:57:10;4.57;;;2.05;;
31990;SDS011;18508;49.386;8.370;2022-08-07T02:59:41;6.70;;;2.55;;
31990;SDS011;18508;49.386;8.370;2022-08-07T03:02:26;3.53;;;1.40;;
31990;SDS011;18508;49.386;8.370;2022-08-07T03:04:54;5.38;;;2.08;;
31990;SDS011;18508;49.386;8.370;2022-08-07T03:07:29;5.53;;;1.85;;
31990;SDS011;18508;49.386;8.370;2022-08-07T03:10:17;6.28;;;1.70;;
31990;SDS011;18508;49.386;8.370;2022-08-07T03:12:50;5.07;;;1.88;;
31990;SDS011;18508;49.386;8.370;2022-08-07T03:15:20;3.28;;;1.45;;
31990;SDS011;18508;49.386;8.370;2022-08-07T03:18:09;3.55;;;1.60;;
31990;SDS011;18508;49.386;8.370;2022-08-07T03:20:45;3.85;;;1.80;;
31990;SDS011;18508;49.386;8.370;2022-08-07T03:23:17;4.47;;;2.00;;
31990;SDS011;18508;49.386;8.370;2022-08-07T03:25:59;4.13;;;1.50;;
31990;SDS011;18508;49.386;8.370;2022-08-07T03:28:30;3.83;;;1.65;;
31990;SDS011;18508;49.386;8.370;2022-08-07T03:31:04;4.00;;;1.45;;
31990;SDS011;18508;49.386;8.370;2022-08-07T03:33:52;4.18;;;1.60;;
31990;SDS011;18508;49.386;8.370;2022-08-07T03:36:22;7.53;;;1.73;;
31990;SDS011;18508;49.386;8.370;2022-08-07T03:38:52;3.10;;;1.52;;
31990;SDS011;18508;49.386;8.370;2022-08-07T03:41:30;5.25;;;1.50;;
31990;SDS011;18508;49.386;8.370;2022-08-07T03:44:14;3.45;;;1.20;;
31990;SDS011;18508;49.386;8.370;2022-08-07T03:46:57;4.45;;;1.50;;
31990;SDS011;18508;49.386;8.370;2022-08-07T03:49:39;3.17;;;1.50;;
31990;SDS011;18508;49.386;8.370;2022-08-07T03:52:17;2.33;;;1.10;;
31990;SDS011;18508;49.386;8.370;2022-08-07T03:54:52;2.70;;;1.45;;
31990;SDS011;18508;49.386;8.370;2022-08-07T03:57:31;6.07;;;2.00;;
31990;SDS011;18508;49.386;8.370;2022-08-07T04:00:21;4.40;;;1.55;;
31990;SDS011;18508;49.386;8.370;2022-08-07T04:02:59;2.92;;;1.20;;
31990;SDS011;18508;49.386;8.370;2022-08-07T04:05:30;3.95;;;1.60;;
31990;SDS011;18508;49.386;8.370;2022-08-07T04:08:07;3.80;;;1.33;;
31990;SDS011;18508;49.386;8.370;2022-08-07T04:10:36;3.65;;;1.70;;
31990;SDS011;18508;49.386;8.370;2022-08-07T04:13:09;2.40;;;1.30;;
31990;SDS011;18508;49.386;8.370;2022-08-07T04:18:11;4.13;;;1.42;;
31990;SDS011;18508;49.386;8.370;2022-08-07T04:21:00;4.45;;;1.30;;
31990;SDS011;18508;49.386;8.370;2022-08-07T04:23:32;3.35;;;1.25;;
31990;SDS011;18508;49.386;8.370;2022-08-07T04:26:21;3.42;;;1.25;;
31990;SDS011;18508;49.386;8.370;2022-08-07T04:28:53;4.53;;;1.17;;
31990;SDS011;18508;49.386;8.370;2022-08-07T04:31:25;3.65;;;1.45;;
31990;SDS011;18508;49.386;8.370;2022-08-07T04:34:13;2.80;;;1.35;;
31990;SDS011;18508;49.386;8.370;2022-08-07T04:36:49;4.15;;;1.30;;
31990;SDS011;18508;49.386;8.370;2022-08-07T04:39:17;5.25;;;1.73;;
31990;SDS011;18508;49.386;8.370;2022-08-07T04:41:51;3.13;;;1.10;;
31990;SDS011;18508;49.386;8.370;2022-08-07T04:44:19;3.30;;;1.40;;
31990;SDS011;18508;49.386;8.370;2022-08-07T04:46:51;6.65;;;1.38;;
31990;SDS011;18508;49.386;8.370;2022-08-07T04:49:37;4.57;;;1.45;;
31990;SDS011;18508;49.386;8.370;2022-08-07T04:52:24;4.13;;;1.40;;
31990;SDS011;18508;49.386;8.370;2022-08-07T04:55:02;4.97;;;1.30;;
31990;SDS011;18508;49.386;8.370;2022-08-07T04:57:56;3.13;;;1.63;;
31990;SDS011;18508;49.386;8.370;2022-08-07T05:00:52;4.72;;;1.50;;
31990;SDS011;18508;49.386;8.370;2022-08-07T05:03:26;3.05;;;1.60;;
31990;SDS011;18508;49.386;8.370;2022-08-07T05:06:20;6.63;;;1.40;;
31990;SDS011;18508;49.386;8.370;2022-08-07T05:09:09;2.80;;;1.30;;
31990;SDS011;18508;49.386;8.370;2022-08-07T05:12:06;5.25;;;1.35;;
31990;SDS011;18508;49.386;8.370;2022-08-07T05:14:42;6.82;;;1.48;;
31990;SDS011;18508;49.386;8.370;2022-08-07T05:20:15;4.57;;;1.65;;
31990;SDS011;18508;49.386;8.370;2022-08-07T05:22:49;2.30;;;1.20;;
31990;SDS011;18508;49.386;8.370;2022-08-07T05:25:19;3.70;;;1.48;;
31990;SDS011;18508;49.386;8.370;2022-08-07T05:28:08;3.35;;;1.42;;
31990;SDS011;18508;49.386;8.370;2022-08-07T05:30:48;2.83;;;1.05;;
31990;SDS011;18508;49.386;8.370;2022-08-07T05:33:18;2.60;;;1.23;;
31990;SDS011;18508;49.386;8.370;2022-08-07T05:35:48;3.47;;;1.27;;
31990;SDS011;18508;49.386;8.370;2022-08-07T05:41:09;3.42;;;1.25;;
31990;SDS011;18508;49.386;8.370;2022-08-07T05:43:42;7.75;;;1.35;;
31990;SDS011;18508;49.386;8.370;2022-08-07T05:46:33;6.07;;;1.95;;
31990;SDS011;18508;49.386;8.370;2022-08-07T05:49:03;5.95;;;1.52;;
31990;SDS011;18508;49.386;8.370;2022-08-07T05:51:39;2.30;;;1.00;;
31990;SDS011;18508;49.386;8.370;2022-08-07T05:54:12;4.78;;;1.50;;
31990;SDS011;18508;49.386;8.370;2022-08-07T05:57:00;4.60;;;1.42;;
31990;SDS011;18508;49.386;8.370;2022-08-07T05:59:29;3.85;;;1.40;;
31990;SDS011;18508;49.386;8.370;2022-08-07T06:02:22;4.47;;;1.23;;
31990;SDS011;18508;49.386;8.370;2022-08-07T06:04:56;4.65;;;1.35;;
31990;SDS011;18508;49.386;8.370;2022-08-07T06:07:30;2.45;;;0.95;;
31990;SDS011;18508;49.386;8.370;2022-08-07T06:10:20;5.85;;;1.10;;
31990;SDS011;18508;49.386;8.370;2022-08-07T06:12:49;4.43;;;1.17;;
31990;SDS011;18508;49.386;8.370;2022-08-07T06:15:17;1.55;;;0.80;;
31990;SDS011;18508;49.386;8.370;2022-08-07T06:18:04;3.85;;;1.10;;
31990;SDS011;18508;49.386;8.370;2022-08-07T06:20:34;2.35;;;0.82;;
31990;SDS011;18508;49.386;8.370;2022-08-07T06:23:24;3.85;;;0.80;;
31990;SDS011;18508;49.386;8.370;2022-08-07T06:26:12;2.60;;;1.05;;
31990;SDS011;18508;49.386;8.370;2022-08-07T06:28:47;4.53;;;0.82;;
31990;SDS011;18508;49.386;8.370;2022-08-07T06:31:18;2.22;;;0.93;;
31990;SDS011;18508;49.386;8.370;2022-08-07T06:33:49;3.33;;;0.90;;
31990;SDS011;18508;49.386;8.370;2022-08-07T06:36:19;3.25;;;1.05;;
31990;SDS011;18508;49.386;8.370;2022-08-07T06:39:02;3.53;;;0.98;;
31990;SDS011;18508;49.386;8.370;2022-08-07T06:41:53;2.20;;;0.90;;
31990;SDS011;18508;49.386;8.370;2022-08-07T06:44:29;3.25;;;0.77;;
31990;SDS011;18508;49.386;8.370;2022-08-07T06:47:01;3.28;;;0.70;;
31990;SDS011;18508;49.386;8.370;2022-08-07T06:49:37;2.60;;;0.90;;
31990;SDS011;18508;49.386;8.370;2022-08-07T06:52:18;1.88;;;0.82;;
31990;SDS011;18508;49.386;8.370;2022-08-07T06:57:51;2.17;;;0.85;;
31990;SDS011;18508;49.386;8.370;2022-08-07T07:00:23;2.42;;;0.90;;
31990;SDS011;18508;49.386;8.370;2022-08-07T07:02:53;5.68;;;1.10;;
31990;SDS011;18508;49.386;8.370;2022-08-07T07:05:26;1.70;;;0.98;;
31990;SDS011;18508;49.386;8.370;2022-08-07T07:08:14;2.90;;;1.08;;
31990;SDS011;18508;49.386;8.370;2022-08-07T07:10:53;2.53;;;0.90;;
31990;SDS011;18508;49.386;8.370;2022-08-07T07:13:24;1.98;;;1.15;;
31990;SDS011;18508;49.386;8.370;2022-08-07T07:16:17;2.38;;;0.88;;
31990;SDS011;18508;49.386;8.370;2022-08-07T07:18:53;3.47;;;1.10;;
31990;SDS011;18508;49.386;8.370;2022-08-07T07:21:50;3.85;;;0.93;;
31990;SDS011;18508;49.386;8.370;2022-08-07T07:24:39;2.53;;;1.00;;
31990;SDS011;18508;49.386;8.370;2022-08-07T07:27:30;1.75;;;1.00;;
31990;SDS011;18508;49.386;8.370;2022-08-07T07:33:03;5.00;;;1.00;;
31990;SDS011;18508;49.386;8.370;2022-08-07T07:35:33;2.83;;;1.20;;
31990;SDS011;18508;49.386;8.370;2022-08-07T07:38:23;8.65;;;1.55;;
31990;SDS011;18508;49.386;8.370;2022-08-07T07:40:51;1.77;;;1.00;;
31990;SDS011;18508;49.386;8.370;2022-08-07T07:43:29;3.22;;;1.35;;
31990;SDS011;18508;49.386;8.370;2022-08-07T07:46:20;3.93;;;1.60;;
31990;SDS011;18508;49.386;8.370;2022-08-07T07:49:10;2.20;;;1.08;;
31990;SDS011;18508;49.386;8.370;2022-08-07T07:52:01;3.80;;;1.27;;
31990;SDS011;18508;49.386;8.370;2022-08-07T07:54:32;5.28;;;1.52;;
31990;SDS011;18508;49.386;8.370;2022-08-07T07:57:02;2.70;;;1.30;;
31990;SDS011;18508;49.386;8.370;2022-08-07T07:59:38;2.63;;;1.60;;
31990;SDS011;18508;49.386;8.370;2022-08-07T08:02:18;3.63;;;1.92;;
31990;SDS011;18508;49.386;8.370;2022-08-07T08:05:01;3.55;;;1.77;;
31990;SDS011;18508;49.386;8.370;2022-08-07T08:07:40;3.92;;;1.95;;
31990;SDS011;18508;49.386;8.370;2022-08-07T08:10:26;3.35;;;1.73;;
31990;SDS011;18508;49.386;8.370;2022-08-07T08:13:04;4.85;;;1.95;;
31990;SDS011;18508;49.386;8.370;2022-08-07T08:15:42;4.25;;;1.80;;
31990;SDS011;18508;49.386;8.370;2022-08-07T08:18:26;2.97;;;1.63;;
31990;SDS011;18508;49.386;8.370;2022-08-07T08:20:55;2.95;;;1.42;;
31990;SDS011;18508;49.386;8.370;2022-08-07T08:23:27;3.78;;;1.98;;
31990;SDS011;18508;49.386;8.370;2022-08-07T08:26:15;3.10;;;1.58;;
31990;SDS011;18508;49.386;8.370;2022-08-07T08:29:02;6.47;;;1.77;;
31990;SDS011;18508;49.386;8.370;2022-08-07T08:31:34;2.38;;;1.45;;
31990;SDS011;18508;49.386;8.370;2022-08-07T08:34:26;6.07;;;1.50;;
31990;SDS011;18508;49.386;8.370;2022-08-07T08:36:56;3.55;;;1.65;;
31990;SDS011;18508;49.386;8.370;2022-08-07T08:39:27;4.68;;;1.60;;
31990;SDS011;18508;49.386;8.370;2022-08-07T08:42:18;5.95;;;1.60;;
31990;SDS011;18508;49.386;8.370;2022-08-07T08:44:57;6.25;;;2.05;;
31990;SDS011;18508;49.386;8.370;2022-08-07T08:47:42;5.28;;;1.90;;
31990;SDS011;18508;49.386;8.370;2022-08-07T08:50:21;4.35;;;1.52;;
31990;SDS011;18508;49.386;8.370;2022-08-07T08:53:05;2.75;;;1.50;;
31990;SDS011;18508;49.386;8.370;2022-08-07T08:55:43;3.45;;;1.65;;
31990;SDS011;18508;49.386;8.370;2022-08-07T08:58:26;4.22;;;1.77;;
31990;SDS011;18508;49.386;8.370;2022-08-07T09:01:02;2.47;;;1.40;;
31990;SDS011;18508;49.386;8.370;2022-08-07T09:03:48;2.70;;;1.70;;
31990;SDS011;18508;49.386;8.370;2022-08-07T09:06:27;3.17;;;1.52;;
31990;SDS011;18508;49.386;8.370;2022-08-07T09:09:03;5.45;;;1.83;;
31990;SDS011;18508;49.386;8.370;2022-08-07T09:14:51;2.15;;;1.40;;
31990;SDS011;18508;49.386;8.370;2022-08-07T09:17:52;3.40;;;1.77;;
31990;SDS011;18508;49.386;8.370;2022-08-07T09:20:44;3.47;;;1.92;;
31990;SDS011;18508;49.386;8.370;2022-08-07T09:23:30;5.18;;;2.08;;
31990;SDS011;18508;49.386;8.370;2022-08-07T09:26:29;3.30;;;2.10;;
31990;SDS011;18508;49.386;8.370;2022-08-07T09:29:16;4.35;;;1.48;;
31990;SDS011;18508;49.386;8.370;2022-08-07T09:32:12;3.72;;;1.83;;
31990;SDS011;18508;49.386;8.370;2022-08-07T09:34:54;5.15;;;1.85;;
31990;SDS011;18508;49.386;8.370;2022-08-07T09:37:53;3.85;;;1.88;;
31990;SDS011;18508;49.386;8.370;2022-08-07T09:40:36;3.30;;;1.50;;
31990;SDS011;18508;49.386;8.370;2022-08-07T09:43:23;2.50;;;1.58;;
31990;SDS011;18508;49.386;8.370;2022-08-07T09:46:20;3.22;;;1.70;;
31990;SDS011;18508;49.386;8.370;2022-08-07T09:49:24;5.90;;;2.13;;
31990;SDS011;18508;49.386;8.370;2022-08-07T09:52:25;3.97;;;2.05;;
31990;SDS011;18508;49.386;8.370;2022-08-07T09:55:03;3.78;;;1.48;;
31990;SDS011;18508;49.386;8.370;2022-08-07T10:01:03;4.05;;;2.53;;
31990;SDS011;18508;49.386;8.370;2022-08-07T10:04:13;2.50;;;1.40;;
31990;SDS011;18508;49.386;8.370;2022-08-07T10:07:01;3.13;;;1.40;;
31990;SDS011;18508;49.386;8.370;2022-08-07T10:09:55;4.53;;;1.50;;
31990;SDS011;18508;49.386;8.370;2022-08-07T10:12:51;3.13;;;1.63;;
31990;SDS011;18508;49.386;8.370;2022-08-07T10:15:45;2.15;;;1.30;;
31990;SDS011;18508;49.386;8.370;2022-08-07T10:18:35;2.05;;;1.40;;
31990;SDS011;18508;49.386;8.370;2022-08-07T10:21:23;2.70;;;1.30;;
31990;SDS011;18508;49.386;8.370;2022-08-07T10:24:25;3.45;;;1.33;;
31990;SDS011;18508;49.386;8.370;2022-08-07T10:27:19;3.08;;;1.20;;
31990;SDS011;18508;49.386;8.370;2022-08-07T10:30:13;2.83;;;1.55;;
31990;SDS011;18508;49.386;8.370;2022-08-07T10:32:58;7.63;;;2.03;;
31990;SDS011;18508;49.386;8.370;2022-08-07T10:36:17;2.80;;;1.25;;
31990;SDS011;18508;49.386;8.370;2022-08-07T10:38:56;5.40;;;1.50;;
31990;SDS011;18508;49.386;8.370;2022-08-07T10:41:32;4.40;;;1.40;;
31990;SDS011;18508;49.386;8.370;2022-08-07T10:44:23;2.72;;;1.38;;
31990;SDS011;18508;49.386;8.370;2022-08-07T10:47:21;4.03;;;1.63;;
31990;SDS011;18508;49.386;8.370;2022-08-07T10:50:20;4.85;;;1.20;;
31990;SDS011;18508;49.386;8.370;2022-08-07T10:52:57;1.70;;;1.00;;
31990;SDS011;18508;49.386;8.370;2022-08-07T10:55:35;1.73;;;1.20;;
31990;SDS011;18508;49.386;8.370;2022-08-07T10:58:15;3.50;;;1.35;;
31990;SDS011;18508;49.386;8.370;2022-08-07T11:01:03;1.88;;;1.30;;
31990;SDS011;18508;49.386;8.370;2022-08-07T11:03:48;2.95;;;1.30;;
31990;SDS011;18508;49.386;8.370;2022-08-07T11:06:44;1.75;;;1.30;;
31990;SDS011;18508;49.386;8.370;2022-08-07T11:09:21;2.65;;;1.35;;
31990;SDS011;18508;49.386;8.370;2022-08-07T11:12:12;2.40;;;1.20;;
31990;SDS011;18508;49.386;8.370;2022-08-07T11:15:01;2.83;;;1.20;;
31990;SDS011;18508;49.386;8.370;2022-08-07T11:17:42;2.00;;;1.10;;
31990;SDS011;18508;49.386;8.370;2022-08-07T11:20:20;2.33;;;1.27;;
31990;SDS011;18508;49.386;8.370;2022-08-07T11:22:58;2.15;;;1.20;;
31990;SDS011;18508;49.386;8.370;2022-08-07T11:25:35;1.65;;;1.20;;
31990;SDS011;18508;49.386;8.370;2022-08-07T11:28:17;3.17;;;1.30;;
31990;SDS011;18508;49.386;8.370;2022-08-07T11:30:52;3.40;;;1.20;;
31990;SDS011;18508;49.386;8.370;2022-08-07T11:33:27;2.25;;;1.10;;
31990;SDS011;18508;49.386;8.370;2022-08-07T11:36:33;1.58;;;0.98;;
31990;SDS011;18508;49.386;8.370;2022-08-07T11:39:12;1.63;;;0.93;;
31990;SDS011;18508;49.386;8.370;2022-08-07T11:41:51;2.65;;;1.23;;
31990;SDS011;18508;49.386;8.370;2022-08-07T11:44:31;2.03;;;1.13;;
31990;SDS011;18508;49.386;8.370;2022-08-07T11:50:31;1.63;;;0.93;;
31990;SDS011;18508;49.386;8.370;2022-08-07T11:53:26;3.72;;;1.10;;
31990;SDS011;18508;49.386;8.370;2022-08-07T11:56:16;1.75;;;0.75;;
31990;SDS011;18508;49.386;8.370;2022-08-07T11:58:58;1.50;;;0.93;;
31990;SDS011;18508;49.386;8.370;2022-08-07T12:01:58;1.95;;;1.00;;
31990;SDS011;18508;49.386;8.370;2022-08-07T12:04:54;1.58;;;1.10;;
31990;SDS011;18508;49.386;8.370;2022-08-07T12:07:43;1.33;;;0.93;;
31990;SDS011;18508;49.386;8.370;2022-08-07T12:10:30;2.22;;;0.98;;
31990;SDS011;18508;49.386;8.370;2022-08-07T12:13:10;1.60;;;0.82;;
31990;SDS011;18508;49.386;8.370;2022-08-07T12:16:01;1.75;;;1.10;;
31990;SDS011;18508;49.386;8.370;2022-08-07T12:18:36;1.50;;;0.73;;
31990;SDS011;18508;49.386;8.370;2022-08-07T12:21:13;2.58;;;1.00;;
31990;SDS011;18508;49.386;8.370;2022-08-07T12:24:09;2.28;;;1.00;;
31990;SDS011;18508;49.386;8.370;2022-08-07T12:27:01;2.55;;;0.82;;
31990;SDS011;18508;49.386;8.370;2022-08-07T12:29:44;4.15;;;1.20;;
31990;SDS011;18508;49.386;8.370;2022-08-07T12:32:18;3.30;;;1.52;;
31990;SDS011;18508;49.386;8.370;2022-08-07T12:34:55;3.60;;;1.23;;
31990;SDS011;18508;49.386;8.370;2022-08-07T12:37:32;5.43;;;1.00;;
31990;SDS011;18508;49.386;8.370;2022-08-07T12:40:24;3.22;;;0.90;;
31990;SDS011;18508;49.386;8.370;2022-08-07T12:43:13;2.33;;;0.95;;
31990;SDS011;18508;49.386;8.370;2022-08-07T12:46:12;2.83;;;1.17;;
31990;SDS011;18508;49.386;8.370;2022-08-07T12:48:59;3.75;;;0.90;;
31990;SDS011;18508;49.386;8.370;2022-08-07T12:51:59;1.20;;;0.85;;
31990;SDS011;18508;49.386;8.370;2022-08-07T12:54:45;2.63;;;1.05;;
31990;SDS011;18508;49.386;8.370;2022-08-07T12:57:27;1.38;;;0.73;;
31990;SDS011;18508;49.386;8.370;2022-08-07T13:00:19;1.35;;;0.70;;
31990;SDS011;18508;49.386;8.370;2022-08-07T13:03:06;2.25;;;0.68;;
31990;SDS011;18508;49.386;8.370;2022-08-07T13:06:07;0.95;;;0.60;;
31990;SDS011;18508;49.386;8.370;2022-08-07T13:08:50;1.20;;;0.50;;
31990;SDS011;18508;49.386;8.370;2022-08-07T13:14:45;1.57;;;0.80;;
31990;SDS011;18508;49.386;8.370;2022-08-07T13:17:26;3.15;;;0.88;;
31990;SDS011;18508;49.386;8.370;2022-08-07T13:20:08;2.35;;;0.80;;
31990;SDS011;18508;49.386;8.370;2022-08-07T13:22:44;1.00;;;0.70;;
31990;SDS011;18508;49.386;8.370;2022-08-07T13:25:22;2.78;;;0.70;;
31990;SDS011;18508;49.386;8.370;2022-08-07T13:27:57;2.10;;;0.75;;
31990;SDS011;18508;49.386;8.370;2022-08-07T13:30:41;1.85;;;1.10;;
31990;SDS011;18508;49.386;8.370;2022-08-07T13:33:28;1.20;;;0.70;;
31990;SDS011;18508;49.386;8.370;2022-08-07T13:36:25;1.90;;;0.73;;
31990;SDS011;18508;49.386;8.370;2022-08-07T13:39:06;5.10;;;3.78;;
31990;SDS011;18508;49.386;8.370;2022-08-07T13:42:00;2.03;;;0.90;;
31990;SDS011;18508;49.386;8.370;2022-08-07T13:44:30;1.45;;;0.75;;
31990;SDS011;18508;49.386;8.370;2022-08-07T13:47:04;1.20;;;0.70;;
31990;SDS011;18508;49.386;8.370;2022-08-07T13:49:35;3.47;;;0.80;;
31990;SDS011;18508;49.386;8.370;2022-08-07T13:52:26;2.03;;;0.55;;
31990;SDS011;18508;49.386;8.370;2022-08-07T13:55:05;0.88;;;0.70;;
31990;SDS011;18508;49.386;8.370;2022-08-07T13:57:51;1.40;;;0.68;;
31990;SDS011;18508;49.386;8.370;2022-08-07T14:00:57;1.45;;;0.63;;
31990;SDS011;18508;49.386;8.370;2022-08-07T14:03:36;1.00;;;0.55;;
31990;SDS011;18508;49.386;8.370;2022-08-07T14:06:29;1.50;;;0.60;;
31990;SDS011;18508;49.386;8.370;2022-08-07T14:11:30;1.83;;;1.13;;
31990;SDS011;18508;49.386;8.370;2022-08-07T14:14:29;3.95;;;2.63;;
31990;SDS011;18508;49.386;8.370;2022-08-07T14:17:05;2.70;;;0.52;;
31990;SDS011;18508;49.386;8.370;2022-08-07T14:20:01;0.80;;;0.50;;
31990;SDS011;18508;49.386;8.370;2022-08-07T14:23:02;0.90;;;0.55;;
31990;SDS011;18508;49.386;8.370;2022-08-07T14:25:35;1.70;;;0.45;;
31990;SDS011;18508;49.386;8.370;2022-08-07T14:28:28;2.33;;;0.63;;
31990;SDS011;18508;49.386;8.370;2022-08-07T14:31:17;1.95;;;0.60;;
31990;SDS011;18508;49.386;8.370;2022-08-07T14:34:08;2.42;;;0.63;;
31990;SDS011;18508;49.386;8.370;2022-08-07T14:36:47;1.08;;;0.40;;
31990;SDS011;18508;49.386;8.370;2022-08-07T14:39:21;2.28;;;0.50;;
31990;SDS011;18508;49.386;8.370;2022-08-07T14:42:12;1.15;;;0.68;;
31990;SDS011;18508;49.386;8.370;2022-08-07T14:44:48;3.67;;;0.68;;
31990;SDS011;18508;49.386;8.370;2022-08-07T14:47:25;1.60;;;0.60;;
31990;SDS011;18508;49.386;8.370;2022-08-07T14:49:59;1.55;;;0.80;;
31990;SDS011;18508;49.386;8.370;2022-08-07T14:52:38;3.20;;;0.63;;
31990;SDS011;18508;49.386;8.370;2022-08-07T14:55:07;5.30;;;3.70;;
31990;SDS011;18508;49.386;8.370;2022-08-07T14:57:45;1.48;;;0.60;;
31990;SDS011;18508;49.386;8.370;2022-08-07T15:00:25;1.20;;;0.50;;
31990;SDS011;18508;49.386;8.370;2022-08-07T15:02:57;1.95;;;0.60;;
31990;SDS011;18508;49.386;8.370;2022-08-07T15:05:44;6.55;;;2.75;;
31990;SDS011;18508;49.386;8.370;2022-08-07T15:08:32;2.65;;;1.35;;
31990;SDS011;18508;49.386;8.370;2022-08-07T15:11:23;1.30;;;0.60;;
31990;SDS011;18508;49.386;8.370;2022-08-07T15:14:20;0.85;;;0.50;;
31990;SDS011;18508;49.386;8.370;2022-08-07T15:16:56;0.73;;;0.60;;
31990;SDS011;18508;49.386;8.370;2022-08-07T15:19:32;1.55;;;0.40;;
31990;SDS011;18508;49.386;8.370;2022-08-07T15:22:23;1.77;;;0.60;;
31990;SDS011;18508;49.386;8.370;2022-08-07T15:24:59;2.47;;;0.40;;
31990;SDS011;18508;49.386;8.370;2022-08-07T15:27:47;1.58;;;0.50;;
31990;SDS011;18508;49.386;8.370;2022-08-07T15:30:38;1.88;;;0.80;;
31990;SDS011;18508;49.386;8.370;2022-08-07T15:33:30;1.88;;;0.60;;
31990;SDS011;18508;49.386;8.370;2022-08-07T15:36:02;1.55;;;0.50;;
31990;SDS011;18508;49.386;8.370;2022-08-07T15:38:33;2.57;;;0.63;;
31990;SDS011;18508;49.386;8.370;2022-08-07T15:41:25;4.15;;;1.98;;
31990;SDS011;18508;49.386;8.370;2022-08-07T15:44:16;2.58;;;1.58;;
31990;SDS011;18508;49.386;8.370;2022-08-07T15:46:52;1.55;;;0.52;;
31990;SDS011;18508;49.386;8.370;2022-08-07T15:49:29;2.72;;;0.63;;
31990;SDS011;18508;49.386;8.370;2022-08-07T15:52:23;1.73;;;0.60;;
31990;SDS011;18508;49.386;8.370;2022-08-07T15:54:56;0.85;;;0.50;;
31990;SDS011;18508;49.386;8.370;2022-08-07T15:57:30;1.45;;;0.47;;
31990;SDS011;18508;49.386;8.370;2022-08-07T16:00:14;2.53;;;0.50;;
31990;SDS011;18508;49.386;8.370;2022-08-07T16:03:00;1.85;;;0.60;;
31990;SDS011;18508;49.386;8.370;2022-08-07T16:05:30;1.00;;;0.43;;
31990;SDS011;18508;49.386;8.370;2022-08-07T16:08:02;1.63;;;0.35;;
31990;SDS011;18508;49.386;8.370;2022-08-07T16:10:55;1.55;;;0.57;;
31990;SDS011;18508;49.386;8.370;2022-08-07T16:13:44;3.03;;;0.70;;
31990;SDS011;18508;49.386;8.370;2022-08-07T16:16:42;1.00;;;0.57;;
31990;SDS011;18508;49.386;8.370;2022-08-07T16:19:52;1.13;;;0.57;;
31990;SDS011;18508;49.386;8.370;2022-08-07T16:22:40;1.10;;;0.43;;
31990;SDS011;18508;49.386;8.370;2022-08-07T16:25:27;1.13;;;0.40;;
31990;SDS011;18508;49.386;8.370;2022-08-07T16:31:53;4.43;;;0.85;;
31990;SDS011;18508;49.386;8.370;2022-08-07T16:34:43;2.10;;;0.50;;
31990;SDS011;18508;49.386;8.370;2022-08-07T16:37:20;1.73;;;0.70;;
31990;SDS011;18508;49.386;8.370;2022-08-07T16:43:37;1.65;;;0.40;;
31990;SDS011;18508;49.386;8.370;2022-08-07T16:46:40;1.77;;;0.45;;
31990;SDS011;18508;49.386;8.370;2022-08-07T16:52:52;1.27;;;0.63;;